sensor_id;sensor_type;location;lat;lon;timestamp;P1;durP1;ratioP1;P2;durP2;ratioP2
54384;SDS011;40284;52.878;5.998;2022-09-09T00:06:45;15.38;;;6.10;;
54384;SDS011;40284;52.878;5.998;2022-09-09T00:09:16;10.32;;;5.90;;
54384;SDS011;40284;52.878;5.998;2022-09-09T00:14:21;11.23;;;6.13;;
54384;SDS011;40284;52.878;5.998;2022-09-09T00:16:50;7.43;;;5.88;;
54384;SDS011;40284;52.878;5.998;2022-09-09T00:19:22;14.95;;;7.10;;
54384;SDS011;40284;52.878;5.998;2022-09-09T00:27:21;6.90;;;5.60;;
54384;SDS011;40284;52.878;5.998;2022-09-09T00:29:54;9.73;;;5.03;;
54384;SDS011;40284;52.878;5.998;2022-09-09T00:32:21;12.38;;;5.50;;
54384;SDS011;40284;52.878;5.998;2022-09-09T00:34:52;6.43;;;5.70;;
54384;SDS011;40284;52.878;5.998;2022-09-09T00:37:19;10.07;;;5.70;;
54384;SDS011;40284;52.878;5.998;2022-09-09T00:39:46;7.90;;;5.40;;
54384;SDS011;40284;52.878;5.998;2022-09-09T00:42:58;9.65;;;5.18;;
54384;SDS011;40284;52.878;5.998;2022-09-09T00:47:38;7.18;;;5.07;;
54384;SDS011;40284;52.878;5.998;2022-09-09T00:53:02;6.70;;;4.90;;
54384;SDS011;40284;52.878;5.998;2022-09-09T00:58:16;7.75;;;4.72;;
54384;SDS011;40284;52.878;5.998;2022-09-09T01:00:52;7.72;;;4.72;;
54384;SDS011;40284;52.878;5.998;2022-09-09T01:03:20;8.93;;;4.90;;
54384;SDS011;40284;52.878;5.998;2022-09-09T01:13:11;13.13;;;5.90;;
54384;SDS011;40284;52.878;5.998;2022-09-09T01:15:39;7.32;;;5.70;;
54384;SDS011;40284;52.878;5.998;2022-09-09T01:18:08;7.90;;;5.28;;
54384;SDS011;40284;52.878;5.998;2022-09-09T01:23:52;7.47;;;5.18;;
54384;SDS011;40284;52.878;5.998;2022-09-09T01:28:39;7.55;;;4.88;;
54384;SDS011;40284;52.878;5.998;2022-09-09T01:31:06;7.15;;;4.97;;
54384;SDS011;40284;52.878;5.998;2022-09-09T01:33:34;10.20;;;5.63;;
54384;SDS011;40284;52.878;5.998;2022-09-09T01:36:04;13.13;;;5.43;;
54384;SDS011;40284;52.878;5.998;2022-09-09T01:38:32;14.85;;;5.50;;
54384;SDS011;40284;52.878;5.998;2022-09-09T01:40:59;7.38;;;5.20;;
54384;SDS011;40284;52.878;5.998;2022-09-09T01:43:25;6.97;;;4.97;;
54384;SDS011;40284;52.878;5.998;2022-09-09T01:45:53;9.73;;;5.43;;
54384;SDS011;40284;52.878;5.998;2022-09-09T01:48:20;8.52;;;5.38;;
54384;SDS011;40284;52.878;5.998;2022-09-09T01:50:47;8.43;;;5.63;;
54384;SDS011;40284;52.878;5.998;2022-09-09T01:53:13;9.65;;;5.72;;
54384;SDS011;40284;52.878;5.998;2022-09-09T01:55:42;9.13;;;5.97;;
54384;SDS011;40284;52.878;5.998;2022-09-09T02:00:51;8.35;;;5.97;;
54384;SDS011;40284;52.878;5.998;2022-09-09T02:03:24;10.00;;;6.28;;
54384;SDS011;40284;52.878;5.998;2022-09-09T02:08:26;6.93;;;6.20;;
54384;SDS011;40284;52.878;5.998;2022-09-09T02:13:30;9.77;;;6.40;;
54384;SDS011;40284;52.878;5.998;2022-09-09T02:16:03;8.32;;;6.50;;
54384;SDS011;40284;52.878;5.998;2022-09-09T02:18:35;8.23;;;7.07;;
54384;SDS011;40284;52.878;5.998;2022-09-09T02:21:03;13.13;;;7.30;;
54384;SDS011;40284;52.878;5.998;2022-09-09T02:23:29;12.98;;;7.03;;
54384;SDS011;40284;52.878;5.998;2022-09-09T02:25:55;8.75;;;6.22;;
54384;SDS011;40284;52.878;5.998;2022-09-09T02:28:24;7.50;;;6.43;;
54384;SDS011;40284;52.878;5.998;2022-09-09T02:30:51;13.30;;;7.30;;
54384;SDS011;40284;52.878;5.998;2022-09-09T02:33:24;8.63;;;6.95;;
54384;SDS011;40284;52.878;5.998;2022-09-09T02:35:51;8.30;;;6.97;;
54384;SDS011;40284;52.878;5.998;2022-09-09T02:38:17;9.05;;;6.22;;
54384;SDS011;40284;52.878;5.998;2022-09-09T02:40:45;6.85;;;5.78;;
54384;SDS011;40284;52.878;5.998;2022-09-09T02:43:13;11.35;;;6.10;;
54384;SDS011;40284;52.878;5.998;2022-09-09T02:48:33;7.63;;;5.18;;
54384;SDS011;40284;52.878;5.998;2022-09-09T02:51:08;6.97;;;5.05;;
54384;SDS011;40284;52.878;5.998;2022-09-09T02:56:09;8.57;;;5.07;;
54384;SDS011;40284;52.878;5.998;2022-09-09T02:58:39;5.80;;;4.68;;
54384;SDS011;40284;52.878;5.998;2022-09-09T03:01:05;5.38;;;4.80;;
54384;SDS011;40284;52.878;5.998;2022-09-09T03:03:31;8.75;;;4.63;;
54384;SDS011;40284;52.878;5.998;2022-09-09T03:05:58;14.55;;;5.03;;
54384;SDS011;40284;52.878;5.998;2022-09-09T03:08:24;8.73;;;4.55;;
54384;SDS011;40284;52.878;5.998;2022-09-09T03:10:51;6.78;;;4.55;;
54384;SDS011;40284;52.878;5.998;2022-09-09T03:13:19;6.60;;;4.18;;
54384;SDS011;40284;52.878;5.998;2022-09-09T03:15:45;6.03;;;4.15;;
54384;SDS011;40284;52.878;5.998;2022-09-09T03:18:11;6.57;;;4.22;;
54384;SDS011;40284;52.878;5.998;2022-09-09T03:20:37;8.35;;;4.30;;
54384;SDS011;40284;52.878;5.998;2022-09-09T03:23:03;10.57;;;4.70;;
54384;SDS011;40284;52.878;5.998;2022-09-09T03:25:29;5.07;;;4.38;;
54384;SDS011;40284;52.878;5.998;2022-09-09T03:27:55;7.32;;;4.72;;
54384;SDS011;40284;52.878;5.998;2022-09-09T03:30:25;9.27;;;4.90;;
54384;SDS011;40284;52.878;5.998;2022-09-09T03:32:51;7.43;;;4.35;;
54384;SDS011;40284;52.878;5.998;2022-09-09T03:35:18;7.07;;;4.88;;
54384;SDS011;40284;52.878;5.998;2022-09-09T03:37:44;7.93;;;5.28;;
54384;SDS011;40284;52.878;5.998;2022-09-09T03:40:10;7.78;;;4.60;;
54384;SDS011;40284;52.878;5.998;2022-09-09T03:42:37;13.32;;;5.70;;
54384;SDS011;40284;52.878;5.998;2022-09-09T03:45:04;8.85;;;5.43;;
54384;SDS011;40284;52.878;5.998;2022-09-09T03:47:30;6.68;;;5.22;;
54384;SDS011;40284;52.878;5.998;2022-09-09T03:49:56;10.00;;;5.43;;
54384;SDS011;40284;52.878;5.998;2022-09-09T03:52:22;8.88;;;5.15;;
54384;SDS011;40284;52.878;5.998;2022-09-09T03:54:50;7.15;;;5.22;;
54384;SDS011;40284;52.878;5.998;2022-09-09T03:57:16;9.50;;;5.50;;
54384;SDS011;40284;52.878;5.998;2022-09-09T03:59:43;7.72;;;4.95;;
54384;SDS011;40284;52.878;5.998;2022-09-09T04:02:09;7.07;;;5.18;;
54384;SDS011;40284;52.878;5.998;2022-09-09T04:04:35;8.25;;;5.70;;
54384;SDS011;40284;52.878;5.998;2022-09-09T04:07:01;10.32;;;5.03;;
54384;SDS011;40284;52.878;5.998;2022-09-09T04:09:28;9.02;;;5.45;;
54384;SDS011;40284;52.878;5.998;2022-09-09T04:11:54;8.40;;;4.85;;
54384;SDS011;40284;52.878;5.998;2022-09-09T04:14:20;6.63;;;4.43;;
54384;SDS011;40284;52.878;5.998;2022-09-09T04:16:47;16.23;;;5.70;;
54384;SDS011;40284;52.878;5.998;2022-09-09T04:19:13;5.90;;;4.45;;
54384;SDS011;40284;52.878;5.998;2022-09-09T04:21:42;5.70;;;4.38;;
54384;SDS011;40284;52.878;5.998;2022-09-09T04:24:08;6.13;;;5.00;;
54384;SDS011;40284;52.878;5.998;2022-09-09T04:26:34;8.70;;;5.82;;
54384;SDS011;40284;52.878;5.998;2022-09-09T04:29:01;10.02;;;6.57;;
54384;SDS011;40284;52.878;5.998;2022-09-09T04:31:28;8.98;;;6.43;;
54384;SDS011;40284;52.878;5.998;2022-09-09T04:33:54;10.95;;;6.55;;
54384;SDS011;40284;52.878;5.998;2022-09-09T04:36:20;8.68;;;7.35;;
54384;SDS011;40284;52.878;5.998;2022-09-09T04:38:46;10.10;;;7.07;;
54384;SDS011;40284;52.878;5.998;2022-09-09T04:41:14;9.57;;;6.95;;
54384;SDS011;40284;52.878;5.998;2022-09-09T04:43:41;9.60;;;7.85;;
54384;SDS011;40284;52.878;5.998;2022-09-09T04:46:07;12.90;;;7.10;;
54384;SDS011;40284;52.878;5.998;2022-09-09T04:48:34;10.45;;;6.65;;
54384;SDS011;40284;52.878;5.998;2022-09-09T04:51:01;11.50;;;8.20;;
54384;SDS011;40284;52.878;5.998;2022-09-09T04:53:28;11.73;;;7.68;;
54384;SDS011;40284;52.878;5.998;2022-09-09T04:56:02;8.77;;;7.53;;
54384;SDS011;40284;52.878;5.998;2022-09-09T04:58:29;14.43;;;8.00;;
54384;SDS011;40284;52.878;5.998;2022-09-09T05:01:02;9.15;;;7.18;;
54384;SDS011;40284;52.878;5.998;2022-09-09T05:03:28;9.23;;;8.13;;
54384;SDS011;40284;52.878;5.998;2022-09-09T05:05:54;11.85;;;8.43;;
54384;SDS011;40284;52.878;5.998;2022-09-09T05:08:21;13.35;;;9.32;;
54384;SDS011;40284;52.878;5.998;2022-09-09T05:10:47;12.25;;;9.18;;
54384;SDS011;40284;52.878;5.998;2022-09-09T05:13:13;14.65;;;8.82;;
54384;SDS011;40284;52.878;5.998;2022-09-09T05:15:39;8.82;;;7.93;;
54384;SDS011;40284;52.878;5.998;2022-09-09T05:18:08;12.90;;;9.20;;
54384;SDS011;40284;52.878;5.998;2022-09-09T05:20:34;10.60;;;8.32;;
54384;SDS011;40284;52.878;5.998;2022-09-09T05:23:00;11.07;;;7.85;;
54384;SDS011;40284;52.878;5.998;2022-09-09T05:25:26;12.63;;;8.18;;
54384;SDS011;40284;52.878;5.998;2022-09-09T05:27:52;10.15;;;7.63;;
54384;SDS011;40284;52.878;5.998;2022-09-09T05:30:19;11.32;;;8.15;;
54384;SDS011;40284;52.878;5.998;2022-09-09T05:32:45;12.93;;;8.77;;
54384;SDS011;40284;52.878;5.998;2022-09-09T05:35:12;11.38;;;8.32;;
54384;SDS011;40284;52.878;5.998;2022-09-09T05:37:38;10.40;;;8.02;;
54384;SDS011;40284;52.878;5.998;2022-09-09T05:40:05;11.90;;;9.30;;
54384;SDS011;40284;52.878;5.998;2022-09-09T05:42:31;10.80;;;8.48;;
54384;SDS011;40284;52.878;5.998;2022-09-09T05:44:57;11.02;;;8.55;;
54384;SDS011;40284;52.878;5.998;2022-09-09T05:47:23;13.65;;;9.00;;
54384;SDS011;40284;52.878;5.998;2022-09-09T05:49:52;10.30;;;7.97;;
54384;SDS011;40284;52.878;5.998;2022-09-09T05:52:19;11.88;;;8.77;;
54384;SDS011;40284;52.878;5.998;2022-09-09T05:54:45;11.80;;;8.68;;
54384;SDS011;40284;52.878;5.998;2022-09-09T05:57:11;11.10;;;8.52;;
54384;SDS011;40284;52.878;5.998;2022-09-09T05:59:37;12.07;;;8.68;;
54384;SDS011;40284;52.878;5.998;2022-09-09T06:02:03;13.50;;;8.65;;
54384;SDS011;40284;52.878;5.998;2022-09-09T06:04:29;11.30;;;9.25;;
54384;SDS011;40284;52.878;5.998;2022-09-09T06:06:56;10.23;;;7.75;;
54384;SDS011;40284;52.878;5.998;2022-09-09T06:09:22;11.70;;;8.65;;
54384;SDS011;40284;52.878;5.998;2022-09-09T06:11:48;11.35;;;8.35;;
54384;SDS011;40284;52.878;5.998;2022-09-09T06:14:14;10.90;;;8.00;;
54384;SDS011;40284;52.878;5.998;2022-09-09T06:16:42;12.07;;;7.95;;
54384;SDS011;40284;52.878;5.998;2022-09-09T06:19:09;13.98;;;8.50;;
54384;SDS011;40284;52.878;5.998;2022-09-09T06:21:37;10.60;;;7.53;;
54384;SDS011;40284;52.878;5.998;2022-09-09T06:24:03;11.32;;;8.02;;
54384;SDS011;40284;52.878;5.998;2022-09-09T06:26:31;11.88;;;8.07;;
54384;SDS011;40284;52.878;5.998;2022-09-09T06:28:58;9.73;;;7.90;;
54384;SDS011;40284;52.878;5.998;2022-09-09T06:31:25;10.73;;;8.30;;
54384;SDS011;40284;52.878;5.998;2022-09-09T06:33:52;14.98;;;7.93;;
54384;SDS011;40284;52.878;5.998;2022-09-09T06:36:23;11.20;;;8.05;;
54384;SDS011;40284;52.878;5.998;2022-09-09T06:38:50;12.57;;;7.50;;
54384;SDS011;40284;52.878;5.998;2022-09-09T06:41:17;8.48;;;7.28;;
54384;SDS011;40284;52.878;5.998;2022-09-09T06:43:44;10.77;;;8.25;;
54384;SDS011;40284;52.878;5.998;2022-09-09T06:46:11;11.35;;;7.32;;
54384;SDS011;40284;52.878;5.998;2022-09-09T06:48:38;11.30;;;7.28;;
54384;SDS011;40284;52.878;5.998;2022-09-09T06:51:13;9.40;;;7.55;;
54384;SDS011;40284;52.878;5.998;2022-09-09T06:53:40;10.77;;;7.47;;
54384;SDS011;40284;52.878;5.998;2022-09-09T06:58:53;9.70;;;7.38;;
54384;SDS011;40284;52.878;5.998;2022-09-09T07:01:20;9.52;;;7.40;;
54384;SDS011;40284;52.878;5.998;2022-09-09T07:03:49;9.07;;;7.43;;
54384;SDS011;40284;52.878;5.998;2022-09-09T07:06:19;10.93;;;7.82;;
54384;SDS011;40284;52.878;5.998;2022-09-09T07:08:52;9.00;;;7.65;;
54384;SDS011;40284;52.878;5.998;2022-09-09T07:11:19;10.25;;;7.85;;
54384;SDS011;40284;52.878;5.998;2022-09-09T07:13:46;12.30;;;7.18;;
54384;SDS011;40284;52.878;5.998;2022-09-09T07:16:13;12.30;;;8.02;;
54384;SDS011;40284;52.878;5.998;2022-09-09T07:18:39;8.90;;;7.93;;
54384;SDS011;40284;52.878;5.998;2022-09-09T07:21:07;12.80;;;8.20;;
54384;SDS011;40284;52.878;5.998;2022-09-09T07:23:33;9.40;;;7.25;;
54384;SDS011;40284;52.878;5.998;2022-09-09T07:26:01;9.38;;;7.68;;
54384;SDS011;40284;52.878;5.998;2022-09-09T07:28:27;12.25;;;7.15;;
54384;SDS011;40284;52.878;5.998;2022-09-09T07:30:59;8.77;;;6.72;;
54384;SDS011;40284;52.878;5.998;2022-09-09T07:33:27;10.20;;;7.18;;
54384;SDS011;40284;52.878;5.998;2022-09-09T07:36:01;8.10;;;6.55;;
54384;SDS011;40284;52.878;5.998;2022-09-09T07:38:27;11.03;;;6.57;;
54384;SDS011;40284;52.878;5.998;2022-09-09T07:41:01;10.77;;;6.20;;
54384;SDS011;40284;52.878;5.998;2022-09-09T07:43:27;9.50;;;5.70;;
54384;SDS011;40284;52.878;5.998;2022-09-09T07:45:57;10.10;;;5.47;;
54384;SDS011;40284;52.878;5.998;2022-09-09T07:48:23;11.70;;;5.85;;
54384;SDS011;40284;52.878;5.998;2022-09-09T07:50:49;10.27;;;5.70;;
54384;SDS011;40284;52.878;5.998;2022-09-09T07:53:16;9.00;;;5.03;;
54384;SDS011;40284;52.878;5.998;2022-09-09T07:55:42;7.85;;;5.00;;
54384;SDS011;40284;52.878;5.998;2022-09-09T07:58:08;8.95;;;4.72;;
54384;SDS011;40284;52.878;5.998;2022-09-09T08:00:34;10.43;;;5.05;;
54384;SDS011;40284;52.878;5.998;2022-09-09T08:03:01;12.20;;;4.90;;
54384;SDS011;40284;52.878;5.998;2022-09-09T08:05:27;10.80;;;4.97;;
54384;SDS011;40284;52.878;5.998;2022-09-09T08:07:54;17.75;;;4.75;;
54384;SDS011;40284;52.878;5.998;2022-09-09T08:10:20;10.38;;;4.50;;
54384;SDS011;40284;52.878;5.998;2022-09-09T08:12:46;8.32;;;4.18;;
54384;SDS011;40284;52.878;5.998;2022-09-09T08:15:12;7.85;;;4.55;;
54384;SDS011;40284;52.878;5.998;2022-09-09T08:17:38;9.88;;;4.10;;
54384;SDS011;40284;52.878;5.998;2022-09-09T08:20:04;12.55;;;4.30;;
54384;SDS011;40284;52.878;5.998;2022-09-09T08:22:30;9.88;;;4.30;;
54384;SDS011;40284;52.878;5.998;2022-09-09T08:24:56;8.60;;;3.97;;
54384;SDS011;40284;52.878;5.998;2022-09-09T08:27:23;9.70;;;3.58;;
54384;SDS011;40284;52.878;5.998;2022-09-09T08:29:49;10.43;;;5.35;;
54384;SDS011;40284;52.878;5.998;2022-09-09T08:32:15;8.18;;;3.88;;
54384;SDS011;40284;52.878;5.998;2022-09-09T08:34:41;9.75;;;4.13;;
54384;SDS011;40284;52.878;5.998;2022-09-09T08:37:07;7.15;;;3.60;;
54384;SDS011;40284;52.878;5.998;2022-09-09T08:39:33;10.18;;;4.22;;
54384;SDS011;40284;52.878;5.998;2022-09-09T08:52:02;10.57;;;3.97;;
54384;SDS011;40284;52.878;5.998;2022-09-09T08:54:33;16.23;;;3.90;;
54384;SDS011;40284;52.878;5.998;2022-09-09T08:57:02;8.32;;;3.53;;
54384;SDS011;40284;52.878;5.998;2022-09-09T08:59:28;8.48;;;2.95;;
54384;SDS011;40284;52.878;5.998;2022-09-09T09:02:00;13.48;;;4.25;;
54384;SDS011;40284;52.878;5.998;2022-09-09T09:12:23;9.57;;;3.67;;
54384;SDS011;40284;52.878;5.998;2022-09-09T09:14:52;11.48;;;3.28;;
54384;SDS011;40284;52.878;5.998;2022-09-09T09:17:20;10.80;;;3.53;;
54384;SDS011;40284;52.878;5.998;2022-09-09T09:19:49;9.80;;;3.53;;
54384;SDS011;40284;52.878;5.998;2022-09-09T09:22:19;9.45;;;3.15;;
54384;SDS011;40284;52.878;5.998;2022-09-09T09:24:58;7.88;;;3.15;;
54384;SDS011;40284;52.878;5.998;2022-09-09T09:28:02;7.88;;;3.05;;
54384;SDS011;40284;52.878;5.998;2022-09-09T09:30:18;8.68;;;3.10;;
54384;SDS011;40284;52.878;5.998;2022-09-09T09:32:55;9.02;;;2.92;;
54384;SDS011;40284;52.878;5.998;2022-09-09T09:35:21;9.20;;;2.65;;
54384;SDS011;40284;52.878;5.998;2022-09-09T09:37:48;10.75;;;2.78;;
54384;SDS011;40284;52.878;5.998;2022-09-09T09:40:18;8.25;;;2.95;;
54384;SDS011;40284;52.878;5.998;2022-09-09T09:42:51;9.38;;;2.78;;
54384;SDS011;40284;52.878;5.998;2022-09-09T09:45:28;9.35;;;2.17;;
54384;SDS011;40284;52.878;5.998;2022-09-09T09:48:03;11.95;;;3.17;;
54384;SDS011;40284;52.878;5.998;2022-09-09T09:50:31;6.95;;;2.17;;
54384;SDS011;40284;52.878;5.998;2022-09-09T09:52:58;12.52;;;2.83;;
54384;SDS011;40284;52.878;5.998;2022-09-09T09:55:25;7.75;;;2.40;;
54384;SDS011;40284;52.878;5.998;2022-09-09T09:57:52;7.10;;;2.20;;
54384;SDS011;40284;52.878;5.998;2022-09-09T10:00:20;9.27;;;3.05;;
54384;SDS011;40284;52.878;5.998;2022-09-09T10:02:46;7.80;;;2.97;;
54384;SDS011;40284;52.878;5.998;2022-09-09T10:07:45;6.70;;;2.20;;
54384;SDS011;40284;52.878;5.998;2022-09-09T10:10:13;5.97;;;1.65;;
54384;SDS011;40284;52.878;5.998;2022-09-09T10:34:24;9.93;;;2.03;;
54384;SDS011;40284;52.878;5.998;2022-09-09T10:36:56;8.80;;;2.17;;
54384;SDS011;40284;52.878;5.998;2022-09-09T10:44:43;7.95;;;2.53;;
54384;SDS011;40284;52.878;5.998;2022-09-09T10:48:25;4.53;;;1.50;;
54384;SDS011;40284;52.878;5.998;2022-09-09T10:53:44;8.00;;;3.20;;
54384;SDS011;40284;52.878;5.998;2022-09-09T10:56:10;5.78;;;2.03;;
54384;SDS011;40284;52.878;5.998;2022-09-09T10:58:44;7.00;;;1.95;;
54384;SDS011;40284;52.878;5.998;2022-09-09T11:01:15;7.00;;;1.83;;
54384;SDS011;40284;52.878;5.998;2022-09-09T11:03:43;5.32;;;1.88;;
54384;SDS011;40284;52.878;5.998;2022-09-09T11:06:12;9.32;;;2.17;;
54384;SDS011;40284;52.878;5.998;2022-09-09T11:08:42;10.43;;;2.55;;
54384;SDS011;40284;52.878;5.998;2022-09-09T11:21:25;9.10;;;2.25;;
54384;SDS011;40284;52.878;5.998;2022-09-09T11:24:11;4.90;;;1.60;;
54384;SDS011;40284;52.878;5.998;2022-09-09T11:26:45;6.80;;;1.70;;
54384;SDS011;40284;52.878;5.998;2022-09-09T11:34:26;7.45;;;2.00;;
54384;SDS011;40284;52.878;5.998;2022-09-09T11:44:37;9.55;;;2.60;;
54384;SDS011;40284;52.878;5.998;2022-09-09T11:47:03;8.65;;;2.40;;
54384;SDS011;40284;52.878;5.998;2022-09-09T11:49:41;5.80;;;1.85;;
54384;SDS011;40284;52.878;5.998;2022-09-09T11:52:11;8.80;;;2.80;;
54384;SDS011;40284;52.878;5.998;2022-09-09T11:54:46;5.70;;;1.63;;
54384;SDS011;40284;52.878;5.998;2022-09-09T11:57:30;9.57;;;2.03;;
54384;SDS011;40284;52.878;5.998;2022-09-09T11:59:58;7.25;;;1.80;;
54384;SDS011;40284;52.878;5.998;2022-09-09T12:02:25;6.75;;;1.88;;
54384;SDS011;40284;52.878;5.998;2022-09-09T12:09:52;6.22;;;2.47;;
54384;SDS011;40284;52.878;5.998;2022-09-09T12:12:26;6.72;;;1.98;;
54384;SDS011;40284;52.878;5.998;2022-09-09T12:14:57;6.63;;;1.92;;
54384;SDS011;40284;52.878;5.998;2022-09-09T12:17:25;5.38;;;1.70;;
54384;SDS011;40284;52.878;5.998;2022-09-09T12:20:03;7.00;;;2.08;;
54384;SDS011;40284;52.878;5.998;2022-09-09T12:22:45;10.27;;;2.88;;
54384;SDS011;40284;52.878;5.998;2022-09-09T12:25:19;9.50;;;2.08;;
54384;SDS011;40284;52.878;5.998;2022-09-09T12:27:56;6.90;;;1.92;;
54384;SDS011;40284;52.878;5.998;2022-09-09T12:30:28;8.82;;;2.92;;
54384;SDS011;40284;52.878;5.998;2022-09-09T12:33:32;9.85;;;2.33;;
54384;SDS011;40284;52.878;5.998;2022-09-09T12:35:54;12.13;;;2.15;;
54384;SDS011;40284;52.878;5.998;2022-09-09T12:38:23;8.85;;;3.03;;
54384;SDS011;40284;52.878;5.998;2022-09-09T12:40:56;7.75;;;2.58;;
54384;SDS011;40284;52.878;5.998;2022-09-09T12:43:23;9.70;;;2.10;;
54384;SDS011;40284;52.878;5.998;2022-09-09T12:45:49;8.38;;;2.90;;
54384;SDS011;40284;52.878;5.998;2022-09-09T12:48:21;8.48;;;2.03;;
54384;SDS011;40284;52.878;5.998;2022-09-09T12:50:51;8.43;;;3.00;;
54384;SDS011;40284;52.878;5.998;2022-09-09T12:55:51;6.18;;;2.35;;
54384;SDS011;40284;52.878;5.998;2022-09-09T12:58:17;8.55;;;2.50;;
54384;SDS011;40284;52.878;5.998;2022-09-09T13:00:51;7.28;;;2.20;;
54384;SDS011;40284;52.878;5.998;2022-09-09T13:03:19;6.43;;;1.83;;
54384;SDS011;40284;52.878;5.998;2022-09-09T13:05:46;6.97;;;1.30;;
54384;SDS011;40284;52.878;5.998;2022-09-09T13:08:13;2.90;;;1.35;;
54384;SDS011;40284;52.878;5.998;2022-09-09T13:10:49;5.78;;;1.52;;
54384;SDS011;40284;52.878;5.998;2022-09-09T13:13:23;4.00;;;1.17;;
54384;SDS011;40284;52.878;5.998;2022-09-09T13:15:55;4.50;;;1.50;;
54384;SDS011;40284;52.878;5.998;2022-09-09T13:18:28;4.50;;;1.58;;
54384;SDS011;40284;52.878;5.998;2022-09-09T13:20:55;4.75;;;1.85;;
54384;SDS011;40284;52.878;5.998;2022-09-09T13:23:32;5.32;;;2.00;;
54384;SDS011;40284;52.878;5.998;2022-09-09T13:26:01;8.05;;;2.15;;
54384;SDS011;40284;52.878;5.998;2022-09-09T13:28:29;4.50;;;1.52;;
54384;SDS011;40284;52.878;5.998;2022-09-09T13:31:00;6.07;;;1.77;;
54384;SDS011;40284;52.878;5.998;2022-09-09T13:33:36;8.48;;;1.50;;
54384;SDS011;40284;52.878;5.998;2022-09-09T13:38:30;7.05;;;2.30;;
54384;SDS011;40284;52.878;5.998;2022-09-09T13:40:57;4.82;;;1.70;;
54384;SDS011;40284;52.878;5.998;2022-09-09T13:43:26;4.70;;;1.67;;
54384;SDS011;40284;52.878;5.998;2022-09-09T13:45:54;8.98;;;1.90;;
54384;SDS011;40284;52.878;5.998;2022-09-09T13:48:21;2.85;;;1.40;;
54384;SDS011;40284;52.878;5.998;2022-09-09T13:51:25;5.10;;;1.70;;
54384;SDS011;40284;52.878;5.998;2022-09-09T13:53:39;8.30;;;2.22;;
54384;SDS011;40284;52.878;5.998;2022-09-09T13:56:05;3.83;;;1.52;;
54384;SDS011;40284;52.878;5.998;2022-09-09T13:58:31;5.13;;;1.90;;
54384;SDS011;40284;52.878;5.998;2022-09-09T14:00:57;4.13;;;1.73;;
54384;SDS011;40284;52.878;5.998;2022-09-09T14:03:23;5.13;;;1.50;;
54384;SDS011;40284;52.878;5.998;2022-09-09T14:05:49;6.28;;;1.67;;
54384;SDS011;40284;52.878;5.998;2022-09-09T14:08:20;3.50;;;1.50;;
54384;SDS011;40284;52.878;5.998;2022-09-09T14:10:46;4.18;;;1.85;;
54384;SDS011;40284;52.878;5.998;2022-09-09T14:13:12;8.43;;;1.65;;
54384;SDS011;40284;52.878;5.998;2022-09-09T14:15:39;4.30;;;1.30;;
54384;SDS011;40284;52.878;5.998;2022-09-09T14:18:05;4.97;;;1.83;;
54384;SDS011;40284;52.878;5.998;2022-09-09T14:20:31;5.38;;;2.17;;
54384;SDS011;40284;52.878;5.998;2022-09-09T14:22:58;3.55;;;1.67;;
54384;SDS011;40284;52.878;5.998;2022-09-09T14:25:24;5.55;;;1.95;;
54384;SDS011;40284;52.878;5.998;2022-09-09T14:27:50;7.28;;;1.40;;
54384;SDS011;40284;52.878;5.998;2022-09-09T14:30:16;6.28;;;2.28;;
54384;SDS011;40284;52.878;5.998;2022-09-09T14:32:42;5.30;;;2.00;;
54384;SDS011;40284;52.878;5.998;2022-09-09T14:35:08;3.47;;;2.03;;
54384;SDS011;40284;52.878;5.998;2022-09-09T14:37:34;4.90;;;1.67;;
54384;SDS011;40284;52.878;5.998;2022-09-09T14:40:00;5.60;;;1.63;;
54384;SDS011;40284;52.878;5.998;2022-09-09T14:42:26;4.45;;;1.65;;
54384;SDS011;40284;52.878;5.998;2022-09-09T14:44:54;5.43;;;1.90;;
54384;SDS011;40284;52.878;5.998;2022-09-09T14:47:20;9.65;;;2.25;;
54384;SDS011;40284;52.878;5.998;2022-09-09T14:49:47;6.55;;;1.90;;
54384;SDS011;40284;52.878;5.998;2022-09-09T14:52:14;7.65;;;2.40;;
54384;SDS011;40284;52.878;5.998;2022-09-09T14:54:41;6.40;;;1.60;;
54384;SDS011;40284;52.878;5.998;2022-09-09T14:57:07;4.93;;;2.40;;
54384;SDS011;40284;52.878;5.998;2022-09-09T14:59:33;4.85;;;1.92;;
54384;SDS011;40284;52.878;5.998;2022-09-09T15:01:59;3.95;;;1.85;;
54384;SDS011;40284;52.878;5.998;2022-09-09T15:04:29;5.18;;;2.33;;
54384;SDS011;40284;52.878;5.998;2022-09-09T15:06:55;4.85;;;2.38;;
54384;SDS011;40284;52.878;5.998;2022-09-09T15:09:21;5.03;;;2.28;;
54384;SDS011;40284;52.878;5.998;2022-09-09T15:11:48;4.07;;;2.20;;
54384;SDS011;40284;52.878;5.998;2022-09-09T15:14:14;7.75;;;2.42;;
54384;SDS011;40284;52.878;5.998;2022-09-09T15:16:40;4.18;;;2.10;;
54384;SDS011;40284;52.878;5.998;2022-09-09T15:19:06;5.28;;;2.63;;
54384;SDS011;40284;52.878;5.998;2022-09-09T15:21:35;7.22;;;2.97;;
54384;SDS011;40284;52.878;5.998;2022-09-09T15:24:01;7.72;;;2.13;;
54384;SDS011;40284;52.878;5.998;2022-09-09T15:26:29;4.85;;;2.10;;
54384;SDS011;40284;52.878;5.998;2022-09-09T15:28:55;6.72;;;2.40;;
54384;SDS011;40284;52.878;5.998;2022-09-09T15:31:26;6.22;;;2.30;;
54384;SDS011;40284;52.878;5.998;2022-09-09T15:33:56;7.35;;;2.53;;
54384;SDS011;40284;52.878;5.998;2022-09-09T15:36:26;4.50;;;1.85;;
54384;SDS011;40284;52.878;5.998;2022-09-09T15:38:54;4.03;;;2.45;;
54384;SDS011;40284;52.878;5.998;2022-09-09T15:41:20;6.68;;;2.10;;
54384;SDS011;40284;52.878;5.998;2022-09-09T15:43:51;6.18;;;2.13;;
54384;SDS011;40284;52.878;5.998;2022-09-09T15:48:44;4.97;;;2.30;;
54384;SDS011;40284;52.878;5.998;2022-09-09T15:51:10;7.00;;;2.35;;
54384;SDS011;40284;52.878;5.998;2022-09-09T15:53:37;4.68;;;2.20;;
54384;SDS011;40284;52.878;5.998;2022-09-09T15:56:06;5.32;;;2.10;;
54384;SDS011;40284;52.878;5.998;2022-09-09T15:58:33;4.93;;;2.42;;
54384;SDS011;40284;52.878;5.998;2022-09-09T16:01:07;8.13;;;2.33;;
54384;SDS011;40284;52.878;5.998;2022-09-09T16:05:59;7.13;;;2.40;;
54384;SDS011;40284;52.878;5.998;2022-09-09T16:08:31;6.82;;;1.83;;
54384;SDS011;40284;52.878;5.998;2022-09-09T16:11:03;5.55;;;2.00;;
54384;SDS011;40284;52.878;5.998;2022-09-09T16:13:32;3.75;;;1.70;;
54384;SDS011;40284;52.878;5.998;2022-09-09T16:15:58;6.80;;;2.65;;
54384;SDS011;40284;52.878;5.998;2022-09-09T16:18:24;3.15;;;1.90;;
54384;SDS011;40284;52.878;5.998;2022-09-09T16:20:54;5.10;;;2.13;;
54384;SDS011;40284;52.878;5.998;2022-09-09T16:23:20;4.55;;;1.77;;
54384;SDS011;40284;52.878;5.998;2022-09-09T16:25:53;4.40;;;2.17;;
54384;SDS011;40284;52.878;5.998;2022-09-09T16:28:19;5.07;;;2.03;;
54384;SDS011;40284;52.878;5.998;2022-09-09T16:30:46;7.07;;;2.30;;
54384;SDS011;40284;52.878;5.998;2022-09-09T16:33:12;3.25;;;2.00;;
54384;SDS011;40284;52.878;5.998;2022-09-09T16:35:40;5.47;;;1.95;;
54384;SDS011;40284;52.878;5.998;2022-09-09T16:38:06;7.40;;;2.67;;
54384;SDS011;40284;52.878;5.998;2022-09-09T16:40:35;3.88;;;1.77;;
54384;SDS011;40284;52.878;5.998;2022-09-09T16:43:04;5.97;;;2.60;;
54384;SDS011;40284;52.878;5.998;2022-09-09T16:45:31;5.90;;;2.63;;
54384;SDS011;40284;52.878;5.998;2022-09-09T16:47:58;4.72;;;2.33;;
54384;SDS011;40284;52.878;5.998;2022-09-09T16:50:24;4.32;;;1.95;;
54384;SDS011;40284;52.878;5.998;2022-09-09T16:52:53;5.78;;;2.10;;
54384;SDS011;40284;52.878;5.998;2022-09-09T16:55:19;6.78;;;2.60;;
54384;SDS011;40284;52.878;5.998;2022-09-09T16:57:45;11.32;;;2.53;;
54384;SDS011;40284;52.878;5.998;2022-09-09T17:00:14;5.30;;;1.83;;
54384;SDS011;40284;52.878;5.998;2022-09-09T17:02:43;7.55;;;2.10;;
54384;SDS011;40284;52.878;5.998;2022-09-09T17:05:10;5.32;;;2.28;;
54384;SDS011;40284;52.878;5.998;2022-09-09T17:07:37;5.70;;;1.92;;
54384;SDS011;40284;52.878;5.998;2022-09-09T17:10:04;5.15;;;2.00;;